UNKLUNEE

Guest
Details From UNKL - YEMELYANOVO
To UNEE - KEMEROVO
Flight Number -
Tags generated
Created
Modified
Stats Distance 227 nm / 420 km
Max Altitude 22,500 ft / 6,858 m
Waypoints 4
Social Downloads 0
Likes 0
Share VATSIM

Download

Looking for another format? Having issues loading an existing format? Contact us
Advertisement - Login to hide

Notes

Basic altitude profile: - Ascent Rate: 2500ft/min - Ascent Speed: 250kts - Cruise Altitude: 35000ft - Cruise Speed: 420kts - Descent Rate: 1500ft/min - Descent Speed: 250kts Options: - Use NATs: yes - Use PACOTS: yes - Use low airways: yes - Use high airways: yes

Route

UNKL NZ02 A309 UNEE

ID Type Via Altitude Latitude Longitude Leg Dist Tot Dist Heading (true) Name
O UNKL APT - 0 ft / 0 m 56.17295˚ 92.49328˚ - 0 nm - YEMELYANOVO
NZ02 APT - 22,500 ft / 6,858 m 56.27167˚ 90.61167˚ 63 nm 63 nm 276° / 275° -
AMOTI FIX A309 (AWY-HI) 22,000 ft / 6,706 m 55.95000˚ 89.05000˚ 55 nm 118 nm 250° / 249° -
O UNEE APT A309 (AWY-LO) 16,800 ft / 5,121 m 55.27127˚ 86.10789˚ 107 nm 226 nm 249° / 247° KEMEROVO

Altitude Profile

Advertisement - Login to hide

Weather


0- 5 10 15 20 25 30 35+ Temperature / ° C

Clouds and Precipitation
Forecast for 2017-12-11 06:00 UTC. Updated an hour ago

Ground ~20,000 ft ~40,000 ft Winds

UNKL

Details ICAO UNKL (KJA)
Name YEMELYANOVO
Region Russia
Timezone Asia/Krasnoyarsk (UTC+7.0)
Stats Elevation 942 ft / 287 m (AMSL)
Location 56.172946° 92.493276°
Runways 1
Magnetic Variation 4.123° E

METAR

UNKL 110430Z 00000MPS 3700 BR BKN010 M17/M19 Q1027 R29/CLRD65 NOSIG RMK QFE744

Decode

TAF

TAF UNKL 110157Z 1103/1203 VRB01MPS 3500 BR SCT009 TEMPO 1103/1105 1000 BR VV002 FM110500 25003G08MPS 5000 -SHSN SCT016CB TEMPO 1106/1121 2000 SHSN BKN013CB

Decode

Departure Runways

ID Width Length Bearing (true) Bearing (mag) Surface Threshold Offset Overrun Length
11 197 ft / 60 m 12,113 ft / 3,692 m 113.16° 109.04° Asphalt 0 ft / 0 m 235 ft / 72 m
29 197 ft / 60 m 12,113 ft / 3,692 m 293.21° 289.09° Asphalt 0 ft / 0 m 215 ft / 66 m

UNEE

Details ICAO UNEE (KEJ)
Name KEMEROVO
Region Russia
Timezone Asia/Novokuznetsk (UTC+7.0)
Stats Elevation 863 ft / 263 m (AMSL)
Location 55.271271° 86.107893°
Runways 2
Magnetic Variation 7.384° E

METAR

UNEE 110430Z 13002MPS CAVOK M08/M11 Q1027 R23/851040 NOSIG RMK QFE747

Decode

TAF

TAF UNEE 110200Z 1103/1203 16003G08MPS 9999 SCT020CB BECMG 1112/1113 VRB01MPS

Decode

Destination Runways

ID Width Length Bearing (true) Bearing (mag) Surface Threshold Offset Overrun Length
05 197 ft / 60 m 10,486 ft / 3,196 m 53.55° 46.17° Concrete 0 ft / 0 m 235 ft / 72 m
05L 155 ft / 47 m 8,637 ft / 2,633 m 55.18° 47.80° Asphalt 0 ft / 0 m 160 ft / 49 m
23 197 ft / 60 m 10,486 ft / 3,196 m 233.58° 226.20° Concrete 0 ft / 0 m 235 ft / 72 m
23R 155 ft / 47 m 8,637 ft / 2,633 m 235.20° 227.82° Asphalt 0 ft / 0 m 0 ft / 0 m

Popular Alternatives